createdAt,value
2022-11-09T00:00:02.208Z,14.4
2022-11-09T00:15:02.669Z,14.6
2022-11-09T00:30:03.098Z,14.7
2022-11-09T00:45:02.514Z,14.8
2022-11-09T01:00:03.003Z,14.9
2022-11-09T01:15:02.378Z,14.8
2022-11-09T01:30:02.992Z,14.7
2022-11-09T01:45:02.288Z,14.7
2022-11-09T02:00:02.692Z,14.5
2022-11-09T02:15:03.146Z,14.3
2022-11-09T02:30:02.556Z,14.2
2022-11-09T02:45:03.012Z,14.3
2022-11-09T03:00:02.460Z,14.1
2022-11-09T03:15:03.024Z,13.9
2022-11-09T03:30:02.344Z,13.7
2022-11-09T03:45:02.786Z,13.6
2022-11-09T04:00:03.235Z,13.5
2022-11-09T04:15:02.670Z,13.7
2022-11-09T04:30:03.105Z,13.8
2022-11-09T04:45:02.563Z,13.7
2022-11-09T05:00:03.051Z,13.7
2022-11-09T05:15:02.409Z,13.8
2022-11-09T05:30:03.059Z,13.8
2022-11-09T05:45:28.064Z,13.6
2022-11-09T06:00:05.263Z,13.4
2022-11-09T06:15:03.192Z,13.4
2022-11-09T06:30:02.621Z,13.5
2022-11-09T06:45:03.063Z,13.6
2022-11-09T07:00:02.483Z,13.4
2022-11-09T07:15:03.099Z,13.0
2022-11-09T07:30:02.360Z,12.8
2022-11-09T07:45:02.801Z,12.7
2022-11-09T08:00:03.245Z,12.8
2022-11-09T08:15:02.648Z,13.0
2022-11-09T08:30:03.106Z,13.2
2022-11-09T08:45:02.542Z,13.9
2022-11-09T09:00:03.085Z,15.4
2022-11-09T09:15:02.403Z,16.3
2022-11-09T09:30:03.077Z,16.7
2022-11-09T09:45:02.304Z,15.7
2022-11-09T10:00:02.738Z,15.1
2022-11-09T10:15:03.192Z,14.9
2022-11-09T10:30:02.622Z,14.7
2022-11-09T10:45:03.121Z,14.9
2022-11-09T11:00:02.552Z,15.0
2022-11-09T11:15:03.112Z,15.6
2022-11-09T11:30:02.406Z,15.7
2022-11-09T11:45:26.146Z,15.7
2022-11-09T12:00:02.266Z,16.6
2022-11-09T12:15:02.696Z,17.8
2022-11-09T12:30:03.149Z,18.3
2022-11-09T12:45:02.558Z,17.9
2022-11-09T13:00:03.141Z,17.2
2022-11-09T13:15:02.474Z,16.3
2022-11-09T13:30:02.897Z,15.6
2022-11-09T13:45:02.301Z,15.2
2022-11-09T14:00:02.745Z,15.0
2022-11-09T14:15:03.202Z,14.5
2022-11-09T14:30:02.714Z,14.2
2022-11-09T14:45:03.163Z,14.3
2022-11-09T15:00:02.503Z,14.2
2022-11-09T15:15:03.176Z,14.2
2022-11-09T15:30:02.370Z,14.1
2022-11-09T15:45:02.876Z,14.0
2022-11-09T16:00:02.249Z,13.8
2022-11-09T16:15:02.693Z,13.7
2022-11-09T16:30:03.181Z,13.4
2022-11-09T16:45:02.593Z,13.2
2022-11-09T17:00:03.186Z,13.0
2022-11-09T17:15:02.450Z,12.7
2022-11-09T17:30:02.899Z,12.4
2022-11-09T17:45:02.334Z,12.2
2022-11-09T18:00:02.789Z,12.0
2022-11-09T18:15:03.286Z,12.0
2022-11-09T18:30:02.620Z,11.9
2022-11-09T18:45:03.228Z,11.8
2022-11-09T19:00:02.485Z,11.7
2022-11-09T19:15:02.932Z,11.8
2022-11-09T19:30:07.907Z,11.8
2022-11-09T19:45:02.812Z,11.9
2022-11-09T20:00:03.271Z,12.0
2022-11-09T20:15:02.678Z,12.0
2022-11-09T20:30:03.238Z,11.9
2022-11-09T20:45:02.563Z,11.7
2022-11-09T21:00:02.994Z,11.4
2022-11-09T21:15:02.425Z,11.1
2022-11-09T21:30:02.855Z,10.8
2022-11-09T21:45:02.330Z,10.6
2022-11-09T22:00:02.747Z,10.5
2022-11-09T22:15:03.294Z,10.3
2022-11-09T22:30:02.646Z,10.2
2022-11-09T22:45:03.280Z,10.1
2022-11-09T23:00:02.517Z,9.9
2022-11-09T23:15:02.969Z,9.9
2022-11-09T23:30:02.435Z,9.9
2022-11-09T23:45:02.819Z,9.9
